Time;durP1;ratioP1;P1;durP2;ratioP2;P2;SDS_P1;SDS_P2;PMS_P1;PMS_P2;Temp;Humidity;BMP_temperature;BMP_pressure;BME280_temperature;BME280_humidity;BME280_pressure;Samples;Min_cycle;Max_cycle;Signal;HPM_P1;HPM_P2
2023/07/04 00:00:08;;;;;;;3.13;1.52;;;;;;;19.75;57.73;96542.66;4944736;29;20075;-83
2023/07/04 00:02:36;;;;;;;2.78;1.42;;;;;;;19.70;57.79;96537.31;4944886;29;20062;-83
2023/07/04 00:05:05;;;;;;;3.15;1.80;;;;;;;19.70;57.70;96541.78;4946009;29;20052;-83
2023/07/04 00:07:34;;;;;;;2.70;1.60;;;;;;;19.72;57.74;96547.63;4946278;29;20075;-83
2023/07/04 00:10:03;;;;;;;2.75;1.50;;;;;;;19.75;57.83;96541.88;4944947;29;20051;-83
2023/07/04 00:12:34;;;;;;;2.92;1.50;;;;;;;19.76;57.74;96538.97;4945805;29;20051;-83
2023/07/04 00:15:03;;;;;;;3.38;1.48;;;;;;;19.74;57.99;96535.78;4946574;29;20058;-84
2023/07/04 00:17:34;;;;;;;2.47;1.77;;;;;;;19.72;58.11;96534.41;4946941;29;20332;-83
2023/07/04 00:22:45;;;;;;;3.38;1.65;;;;;;;19.66;58.41;96530.84;4944685;29;20048;-83
2023/07/04 00:25:13;;;;;;;3.05;1.90;;;;;;;19.66;58.67;96533.50;4946792;29;20063;-83
2023/07/04 00:27:41;;;;;;;4.25;1.80;;;;;;;19.62;58.23;96532.38;4945624;29;20083;-84
2023/07/04 00:30:12;;;;;;;2.70;1.40;;;;;;;19.58;58.51;96539.19;4944026;29;20044;-83
2023/07/04 00:32:45;;;;;;;2.28;1.42;;;;;;;19.56;58.48;96541.28;4946120;29;20510;-83
2023/07/04 00:35:14;;;;;;;7.70;2.58;;;;;;;19.50;58.65;96548.34;4949452;29;20078;-83
2023/07/04 00:37:44;;;;;;;3.85;1.48;;;;;;;19.47;58.81;96546.16;4947368;29;20059;-83
2023/07/04 00:40:13;;;;;;;2.80;1.50;;;;;;;19.44;58.67;96538.72;4947530;29;20051;-83
2023/07/04 00:42:41;;;;;;;3.83;1.85;;;;;;;19.40;58.77;96542.06;4947992;29;20430;-83
2023/07/04 00:45:19;;;;;;;2.85;1.67;;;;;;;19.31;59.62;96554.88;4947371;29;20114;-83
2023/07/04 00:47:56;;;;;;;4.03;1.80;;;;;;;19.22;59.99;96549.19;4947333;29;20070;-83
2023/07/04 00:50:27;;;;;;;5.70;2.00;;;;;;;19.13;60.13;96542.66;4944895;29;20048;-83
2023/07/04 00:52:57;;;;;;;2.45;1.73;;;;;;;19.08;60.43;96547.84;4944878;29;20495;-83
2023/07/04 00:55:28;;;;;;;2.35;1.85;;;;;;;19.02;60.25;96552.28;4944590;29;20479;-84
2023/07/04 00:57:57;;;;;;;1.73;1.60;;;;;;;18.94;60.51;96553.44;4944000;29;20066;-84
2023/07/04 01:00:26;;;;;;;3.85;1.85;;;;;;;18.85;60.91;96546.13;4943790;29;20048;-84
2023/07/04 01:03:01;;;;;;;2.70;1.65;;;;;;;18.78;61.57;96546.25;4944796;29;20056;-83
2023/07/04 01:05:39;;;;;;;2.83;1.70;;;;;;;18.73;61.59;96543.47;4945875;29;20074;-84
2023/07/04 01:08:13;;;;;;;3.15;1.70;;;;;;;18.68;61.79;96561.88;4945642;29;20056;-84
2023/07/04 01:10:44;;;;;;;2.88;1.60;;;;;;;18.64;62.04;96553.59;4946384;29;20059;-84
2023/07/04 01:13:33;;;;;;;4.93;2.03;;;;;;;18.60;62.27;96554.31;4945777;29;20086;-83
2023/07/04 01:16:02;;;;;;;3.35;1.90;;;;;;;18.50;62.12;96550.44;4948120;29;20298;-84
2023/07/04 01:18:33;;;;;;;3.75;1.80;;;;;;;18.41;62.40;96543.91;4948536;29;20054;-83
2023/07/04 01:21:05;;;;;;;3.90;1.70;;;;;;;18.35;62.67;96554.59;4946833;29;20061;-84
2023/07/04 01:23:43;;;;;;;4.30;1.90;;;;;;;18.29;63.00;96554.47;4946362;29;20545;-83
2023/07/04 01:26:23;;;;;;;3.92;1.60;;;;;;;18.34;63.24;96561.69;4946511;29;20479;-83
2023/07/04 01:28:53;;;;;;;2.83;1.98;;;;;;;18.36;62.48;96554.34;4946389;29;20139;-83
2023/07/04 01:31:23;;;;;;;3.58;1.67;;;;;;;18.39;62.45;96553.91;4946263;29;20103;-83
2023/07/04 01:33:52;;;;;;;3.83;1.90;;;;;;;18.39;62.20;96553.91;4947205;29;20060;-83
2023/07/04 01:36:25;;;;;;;2.38;1.45;;;;;;;18.46;62.16;96554.56;4946859;29;20051;-83
2023/07/04 01:38:56;;;;;;;2.80;1.85;;;;;;;18.53;61.75;96547.31;4946969;29;20055;-84
2023/07/04 01:41:30;;;;;;;2.38;1.63;;;;;;;18.63;61.48;96545.91;4945883;29;20052;-83
2023/07/04 01:44:03;;;;;;;1.90;1.30;;;;;;;18.69;61.43;96543.16;4946072;29;20063;-83
2023/07/04 01:46:32;;;;;;;3.78;1.73;;;;;;;18.71;60.65;96534.97;4946115;29;20554;-83
2023/07/04 01:49:00;;;;;;;2.70;1.33;;;;;;;18.72;60.54;96542.69;4946143;29;20099;-83
2023/07/04 01:51:29;;;;;;;2.78;1.60;;;;;;;18.71;60.60;96546.34;4946187;29;20052;-83
2023/07/04 01:53:57;;;;;;;2.45;1.63;;;;;;;18.72;60.45;96539.25;4946108;29;20051;-83
2023/07/04 01:56:27;;;;;;;3.80;1.40;;;;;;;18.69;60.28;96540.53;4946537;29;20051;-84
2023/07/04 01:58:58;;;;;;;2.47;1.45;;;;;;;18.67;60.66;96554.97;4945096;29;20082;-83
2023/07/04 02:01:29;;;;;;;3.45;1.70;;;;;;;18.64;60.38;96555.47;4942867;29;20534;-83
2023/07/04 02:03:57;;;;;;;4.10;1.90;;;;;;;18.55;60.47;96556.88;4943208;29;20526;-83
2023/07/04 02:06:25;;;;;;;2.92;1.98;;;;;;;18.40;60.82;96560.78;4943580;29;20085;-84
2023/07/04 02:08:54;;;;;;;3.53;1.65;;;;;;;18.25;61.28;96560.47;4943393;29;20521;-84
2023/07/04 02:11:22;;;;;;;4.70;2.42;;;;;;;18.16;61.62;96569.78;4940658;29;20586;-84
2023/07/04 02:13:52;;;;;;;2.55;1.60;;;;;;;18.06;61.96;96565.88;4940757;29;20074;-84
2023/07/04 02:16:20;;;;;;;2.78;1.38;;;;;;;18.01;62.05;96560.47;4941492;29;20052;-84
2023/07/04 02:18:48;;;;;;;2.83;1.70;;;;;;;17.99;62.41;96569.66;4944261;29;20175;-84
2023/07/04 02:21:15;;;;;;;1.60;1.45;;;;;;;17.94;62.31;96567.69;4942138;29;20523;-83
2023/07/04 02:23:44;;;;;;;2.38;2.03;;;;;;;17.93;62.51;96571.38;4942134;29;20082;-84
2023/07/04 02:26:12;;;;;;;2.97;1.77;;;;;;;17.90;62.59;96569.19;4941029;29;20075;-84
2023/07/04 02:28:40;;;;;;;3.10;1.77;;;;;;;17.86;62.54;96573.31;4939969;29;20055;-84
2023/07/04 02:31:10;;;;;;;5.20;1.80;;;;;;;17.81;62.71;96578.44;4938351;29;20102;-84
2023/07/04 02:33:38;;;;;;;3.53;2.22;;;;;;;17.78;62.73;96574.44;4939755;29;20518;-84
2023/07/04 02:36:11;;;;;;;2.85;1.60;;;;;;;17.76;62.96;96570.41;4939756;29;20135;-84
2023/07/04 02:38:40;;;;;;;3.05;1.83;;;;;;;17.71;63.11;96574.53;4941934;29;20459;-84
2023/07/04 02:41:09;;;;;;;3.03;2.08;;;;;;;17.68;63.27;96574.97;4939960;29;20063;-84
2023/07/04 02:43:45;;;;;;;4.20;1.75;;;;;;;17.64;63.54;96576.47;4939689;29;20048;-84
2023/07/04 02:46:20;;;;;;;3.13;1.73;;;;;;;17.57;63.81;96570.50;4939256;29;20111;-85
2023/07/04 02:48:50;;;;;;;2.60;1.88;;;;;;;17.52;63.90;96567.75;4938473;29;20081;-84
2023/07/04 02:51:18;;;;;;;2.10;1.30;;;;;;;17.47;64.05;96567.59;4940982;29;20067;-84
2023/07/04 02:53:57;;;;;;;2.33;1.85;;;;;;;17.46;64.32;96576.53;4939364;29;20055;-85
2023/07/04 02:56:26;;;;;;;3.13;1.40;;;;;;;17.46;64.27;96573.91;4938213;29;20060;-84
2023/07/04 02:58:54;;;;;;;2.72;1.55;;;;;;;17.50;64.29;96572.44;4938314;29;20135;-84
2023/07/04 03:01:24;;;;;;;2.40;1.77;;;;;;;17.49;64.44;96576.09;4938096;29;20131;-84
2023/07/04 03:03:52;;;;;;;3.42;1.50;;;;;;;17.45;64.35;96569.69;4939113;29;20052;-84
2023/07/04 03:06:24;;;;;;;2.65;1.40;;;;;;;17.40;64.53;96580.09;4938163;29;20055;-83
2023/07/04 03:08:56;;;;;;;1.85;1.67;;;;;;;17.38;65.12;96579.50;4940803;29;20541;-84
2023/07/04 03:11:24;;;;;;;4.53;2.00;;;;;;;17.37;64.58;96577.91;4926874;29;20047;-82
2023/07/04 03:13:52;;;;;;;3.75;1.55;;;;;;;17.34;64.77;96573.91;4938579;29;20138;-82
2023/07/04 03:16:19;;;;;;;4.20;2.20;;;;;;;17.35;64.92;96580.75;4939887;29;20047;-83
2023/07/04 03:18:49;;;;;;;4.85;1.77;;;;;;;17.36;65.00;96582.38;4938611;29;20518;-83
2023/07/04 03:21:17;;;;;;;3.15;1.80;;;;;;;17.40;65.08;96572.16;4937392;29;20331;-89
2023/07/04 03:23:44;;;;;;;2.15;1.55;;;;;;;17.45;64.59;96583.66;4937207;29;20551;-87
2023/07/04 03:26:12;;;;;;;2.85;2.03;;;;;;;17.48;64.75;96583.19;4937408;29;20075;-88
2023/07/04 03:28:40;;;;;;;7.25;1.83;;;;;;;17.49;64.41;96586.63;4934268;29;20580;-88
2023/07/04 03:31:07;;;;;;;3.15;1.75;;;;;;;17.56;64.32;96590.00;4923640;29;20488;-88
2023/07/04 03:33:35;;;;;;;1.70;1.60;;;;;;;17.61;64.33;96584.84;4930162;29;20055;-87
2023/07/04 03:36:06;;;;;;;2.22;1.60;;;;;;;17.59;64.55;96586.91;4942286;29;20052;-89
2023/07/04 03:38:33;;;;;;;2.22;1.80;;;;;;;17.57;64.55;96585.53;4940616;29;20059;-88
2023/07/04 03:41:01;;;;;;;3.38;2.00;;;;;;;17.55;64.47;96591.00;4940234;29;20668;-88
2023/07/04 03:43:29;;;;;;;2.75;1.25;;;;;;;17.53;64.49;96592.28;4943333;29;20384;-88
2023/07/04 03:45:57;;;;;;;2.28;1.85;;;;;;;17.47;64.71;96584.25;4936017;29;20052;-89
2023/07/04 03:48:24;;;;;;;2.95;1.80;;;;;;;17.46;64.83;96587.09;4924014;29;20052;-88
2023/07/04 03:50:52;;;;;;;2.40;1.83;;;;;;;17.45;64.83;96580.22;4942054;29;20052;-88
2023/07/04 03:53:22;;;;;;;2.60;1.70;;;;;;;17.47;65.24;96583.41;4943052;29;20043;-89
2023/07/04 03:55:50;;;;;;;2.03;1.35;;;;;;;17.49;65.17;96574.28;4942538;29;20069;-88
2023/07/04 03:58:18;;;;;;;1.67;1.27;;;;;;;17.53;65.19;96576.44;4941050;29;20062;-88
2023/07/04 04:00:46;;;;;;;1.85;1.60;;;;;;;17.57;64.83;96588.94;4940782;29;20146;-88
2023/07/04 04:03:14;;;;;;;2.97;1.70;;;;;;;17.63;64.87;96577.50;4940626;29;20067;-87
2023/07/04 04:05:43;;;;;;;3.58;1.90;;;;;;;17.66;64.95;96574.41;4931023;29;20519;-88
2023/07/04 04:08:11;;;;;;;3.50;1.60;;;;;;;17.71;64.80;96577.19;4919815;29;20424;-88
2023/07/04 04:10:40;;;;;;;2.25;1.52;;;;;;;17.77;64.74;96577.28;4920519;29;20556;-88
2023/07/04 04:13:07;;;;;;;2.65;1.27;;;;;;;17.82;64.67;96572.16;4919639;29;20079;-89
2023/07/04 04:15:35;;;;;;;3.05;1.65;;;;;;;17.86;64.63;96575.94;4920272;29;20120;-88
2023/07/04 04:18:03;;;;;;;4.15;2.00;;;;;;;17.91;64.56;96573.44;4930334;29;20495;-88
2023/07/04 04:20:31;;;;;;;1.90;1.55;;;;;;;17.97;64.86;96572.50;4939727;29;20039;-86
2023/07/04 04:23:00;;;;;;;2.75;1.75;;;;;;;18.03;64.39;96576.88;4940588;29;20078;-89
2023/07/04 04:25:28;;;;;;;4.35;1.77;;;;;;;18.11;64.54;96584.47;4940037;29;20099;-86
2023/07/04 04:27:58;;;;;;;7.93;5.13;;;;;;;18.20;64.35;96584.13;4940094;29;20058;-88
2023/07/04 04:30:28;;;;;;;2.63;1.83;;;;;;;18.24;63.87;96585.28;4939127;29;20052;-85
2023/07/04 04:32:57;;;;;;;3.67;2.20;;;;;;;18.23;63.92;96581.00;4942798;29;20043;-86
2023/07/04 04:35:30;;;;;;;3.45;1.80;;;;;;;18.23;63.57;96591.56;4943088;29;20066;-88
2023/07/04 04:38:07;;;;;;;5.78;1.85;;;;;;;18.23;63.55;96591.56;4937737;29;20059;-87
2023/07/04 04:40:50;;;;;;;2.08;1.80;;;;;;;18.24;63.81;96593.97;4918398;29;20052;-91
2023/07/04 04:43:32;;;;;;;2.33;1.75;;;;;;;18.23;63.65;96592.38;4918411;29;20062;-90
2023/07/04 04:46:12;;;;;;;4.35;1.70;;;;;;;18.24;63.55;96599.25;4926761;29;20116;-90
2023/07/04 04:48:41;;;;;;;2.55;1.90;;;;;;;18.21;63.75;96598.91;4936344;29;20575;-81
2023/07/04 04:51:12;;;;;;;3.63;1.77;;;;;;;18.22;64.03;96605.81;4936910;29;20562;-81
2023/07/04 04:53:41;;;;;;;3.45;2.03;;;;;;;18.25;64.11;96600.06;4937611;29;20095;-80
2023/07/04 04:56:09;;;;;;;2.75;1.77;;;;;;;18.31;64.40;96607.06;4931606;29;20599;-80
2023/07/04 04:58:43;;;;;;;3.03;2.00;;;;;;;18.38;64.11;96613.03;4917550;29;20484;-81
2023/07/04 05:01:14;;;;;;;16.33;10.52;;;;;;;18.43;64.15;96615.81;4917518;29;20052;-80
2023/07/04 05:03:42;;;;;;;7.30;2.47;;;;;;;18.42;63.86;96616.81;4918114;29;20136;-79
2023/07/04 05:06:10;;;;;;;3.80;2.35;;;;;;;18.41;64.07;96609.94;4932488;29;20059;-78
2023/07/04 05:08:38;;;;;;;4.70;2.45;;;;;;;18.45;64.28;96618.97;4933910;29;20130;-81
2023/07/04 05:11:07;;;;;;;3.90;2.00;;;;;;;18.47;63.83;96614.28;4917498;29;20431;-80
2023/07/04 05:13:37;;;;;;;3.15;1.95;;;;;;;18.48;63.87;96615.91;4917723;29;20152;-79
2023/07/04 05:16:08;;;;;;;3.47;1.70;;;;;;;18.50;63.83;96618.31;4917630;29;20131;-79
2023/07/04 05:18:37;;;;;;;4.40;2.15;;;;;;;18.49;63.62;96628.06;4917515;29;20056;-80
2023/07/04 05:21:07;;;;;;;3.42;2.35;;;;;;;18.47;63.54;96624.84;4916740;29;20091;-80
2023/07/04 05:23:38;;;;;;;6.90;2.33;;;;;;;18.42;63.85;96619.47;4916734;29;20048;-80
2023/07/04 05:26:08;;;;;;;4.05;2.15;;;;;;;18.41;63.97;96631.06;4917497;29;20090;-79
2023/07/04 05:28:36;;;;;;;8.07;2.70;;;;;;;18.41;63.89;96631.06;4917333;29;20060;-79
2023/07/04 05:31:06;;;;;;;4.10;2.47;;;;;;;18.43;63.90;96631.66;4917671;29;20075;-79
2023/07/04 05:33:34;;;;;;;4.78;1.80;;;;;;;18.44;63.60;96633.25;4917753;29;20044;-79
2023/07/04 05:36:04;;;;;;;3.50;2.50;;;;;;;18.43;63.59;96629.00;4917463;29;20083;-80
2023/07/04 05:38:32;;;;;;;6.47;2.88;;;;;;;18.44;63.62;96632.44;4916607;29;20491;-79
2023/07/04 05:41:00;;;;;;;3.92;2.30;;;;;;;18.46;63.85;96638.31;4918789;29;20091;-80
2023/07/04 05:43:28;;;;;;;10.05;2.83;;;;;;;18.51;63.74;96636.56;4918483;29;20052;-80
2023/07/04 05:45:57;;;;;;;10.85;3.72;;;;;;;18.60;63.59;96638.84;4917604;29;20108;-80
2023/07/04 05:48:26;;;;;;;10.68;3.58;;;;;;;18.66;63.57;96641.38;4918358;29;20076;-79
2023/07/04 05:50:55;;;;;;;8.23;2.70;;;;;;;18.73;63.12;96639.41;4922004;29;20453;-79
2023/07/04 05:53:24;;;;;;;4.28;1.92;;;;;;;18.83;62.85;96645.97;4921847;29;20048;-80
2023/07/04 05:55:52;;;;;;;2.85;2.00;;;;;;;18.89;62.82;96648.50;4921086;29;20489;-79
2023/07/04 05:58:20;;;;;;;4.70;2.08;;;;;;;18.97;62.54;96651.81;4921579;29;20056;-79
2023/07/04 06:00:48;;;;;;;4.15;1.60;;;;;;;19.01;62.20;96648.47;4921774;29;20083;-80
2023/07/04 06:03:17;;;;;;;3.05;1.60;;;;;;;19.05;62.01;96646.97;4922371;29;20048;-78
2023/07/04 06:05:47;;;;;;;1.73;1.30;;;;;;;19.09;61.97;96648.09;4921244;29;20063;-77
2023/07/04 06:08:14;;;;;;;3.40;1.40;;;;;;;19.14;61.71;96656.13;4919774;29;20083;-79
2023/07/04 06:10:42;;;;;;;1.63;1.27;;;;;;;19.20;61.85;96654.38;4922330;29;20094;-79
2023/07/04 06:13:09;;;;;;;2.25;1.85;;;;;;;19.26;62.08;96655.28;4920748;29;20136;-79
2023/07/04 06:15:41;;;;;;;1.38;1.13;;;;;;;19.33;61.92;96653.31;4920584;29;20134;-80
2023/07/04 06:18:09;;;;;;;2.67;1.30;;;;;;;19.41;61.96;96665.34;4920616;29;20058;-79
2023/07/04 06:20:37;;;;;;;2.45;1.00;;;;;;;19.46;61.39;96662.78;4921940;29;20241;-80
2023/07/04 06:23:05;;;;;;;1.60;1.05;;;;;;;19.52;61.41;96664.50;4923516;29;20076;-79
2023/07/04 06:25:33;;;;;;;1.50;1.40;;;;;;;19.56;61.56;96662.97;4923649;29;20140;-79
2023/07/04 06:28:01;;;;;;;3.47;1.33;;;;;;;19.61;61.02;96665.69;4921813;29;20082;-79
2023/07/04 06:30:31;;;;;;;1.88;1.55;;;;;;;19.65;61.06;96661.53;4921847;29;20048;-80
2023/07/04 06:32:59;;;;;;;2.05;1.20;;;;;;;19.70;60.80;96660.88;4921182;29;20052;-79
2023/07/04 06:35:27;;;;;;;2.42;1.20;;;;;;;19.75;60.98;96661.75;4921746;29;20133;-79
2023/07/04 06:37:54;;;;;;;3.03;1.30;;;;;;;19.80;60.86;96665.53;4920074;29;20457;-77
2023/07/04 06:40:23;;;;;;;3.40;1.42;;;;;;;19.83;60.25;96662.41;4917991;29;20052;-77
2023/07/04 06:42:51;;;;;;;2.97;1.63;;;;;;;19.85;59.84;96660.31;4918042;29;20052;-77
2023/07/04 06:45:19;;;;;;;3.45;2.10;;;;;;;19.84;59.19;96664.81;4917693;29;20044;-77
2023/07/04 06:47:49;;;;;;;2.15;1.40;;;;;;;19.84;59.00;96664.03;4972749;23;20031;-88
2023/07/04 06:50:17;;;;;;;3.08;1.95;;;;;;;19.87;58.81;96663.53;4972414;29;20506;-88
2023/07/04 06:52:45;;;;;;;2.97;1.80;;;;;;;19.87;58.39;96663.53;4971898;29;20070;-88
2023/07/04 06:55:13;;;;;;;2.97;1.23;;;;;;;19.92;58.42;96671.59;4970602;29;20059;-88
2023/07/04 06:57:43;;;;;;;2.47;1.63;;;;;;;19.93;58.06;96673.97;4970517;29;20055;-89
2023/07/04 07:00:12;;;;;;;2.35;1.48;;;;;;;19.95;58.13;96671.09;4969992;28;20055;-89
2023/07/04 07:02:40;;;;;;;1.70;1.42;;;;;;;20.01;58.32;96664.84;4970548;29;20055;-88
2023/07/04 07:05:09;;;;;;;3.10;1.92;;;;;;;20.10;57.93;96674.00;4969334;29;20051;-91
2023/07/04 07:07:39;;;;;;;2.00;1.27;;;;;;;20.16;57.71;96677.53;4969314;29;20070;-89
2023/07/04 07:10:08;;;;;;;2.67;1.63;;;;;;;20.23;57.38;96678.16;4969524;29;20051;-87
2023/07/04 07:12:37;;;;;;;3.63;1.70;;;;;;;20.31;57.64;96679.59;4969598;29;20499;-89
2023/07/04 07:15:07;;;;;;;3.40;2.00;;;;;;;20.36;56.15;96677.84;4969524;29;20051;-87
2023/07/04 07:17:35;;;;;;;2.88;1.90;;;;;;;20.43;56.22;96671.56;4969364;29;20043;-89
2023/07/04 07:20:07;;;;;;;5.55;1.95;;;;;;;20.49;55.97;96670.63;4969245;28;20116;-86
2023/07/04 07:22:35;;;;;;;5.30;1.83;;;;;;;20.52;56.05;96670.91;4969371;29;20494;-89
2023/07/04 07:25:03;;;;;;;3.33;2.10;;;;;;;20.58;56.06;96669.97;4969079;29;20055;-88
2023/07/04 07:27:32;;;;;;;3.50;2.15;;;;;;;20.62;55.75;96664.16;4967794;29;20058;-86
2023/07/04 07:30:01;;;;;;;5.40;1.90;;;;;;;20.70;55.42;96677.81;4967075;29;20519;-86
2023/07/04 07:32:30;;;;;;;3.40;1.73;;;;;;;20.76;55.18;96676.84;4967845;29;20058;-89
2023/07/04 07:34:59;;;;;;;3.15;1.83;;;;;;;20.82;54.16;96671.63;4968432;29;20431;-86
2023/07/04 07:37:27;;;;;;;4.82;1.90;;;;;;;20.85;53.08;96669.25;4968201;29;20043;-86
2023/07/04 07:39:55;;;;;;;5.40;1.90;;;;;;;20.90;52.03;96672.00;4967517;29;20055;-88
2023/07/04 07:42:23;;;;;;;9.02;2.00;;;;;;;20.98;52.12;96662.81;4966742;29;20080;-84
2023/07/04 07:44:51;;;;;;;5.30;2.33;;;;;;;21.10;51.91;96662.66;4966838;29;20118;-87
2023/07/04 07:47:19;;;;;;;6.55;2.15;;;;;;;21.18;50.13;96667.53;4967409;29;20055;-84
2023/07/04 07:49:49;;;;;;;5.00;2.00;;;;;;;21.21;49.93;96667.06;4967722;28;20047;-87
2023/07/04 07:52:17;;;;;;;3.10;1.95;;;;;;;21.30;50.26;96664.78;4967222;29;20047;-86
2023/07/04 07:54:45;;;;;;;7.13;2.35;;;;;;;21.40;50.08;96667.53;4966881;29;20051;-85
2023/07/04 07:57:13;;;;;;;4.50;1.80;;;;;;;21.51;49.90;96656.00;4969738;29;20057;-88
2023/07/04 07:59:41;;;;;;;5.72;2.25;;;;;;;21.60;49.42;96649.22;4971758;29;20090;-88
2023/07/04 08:02:12;;;;;;;2.90;1.90;;;;;;;21.69;49.40;96649.56;4971850;29;20059;-86
2023/07/04 08:04:40;;;;;;;3.42;1.95;;;;;;;21.75;48.35;96655.69;4971693;29;20063;-88
2023/07/04 08:07:10;;;;;;;3.45;1.88;;;;;;;21.80;48.04;96653.09;4970134;29;20110;-87
2023/07/04 08:09:38;;;;;;;6.93;2.50;;;;;;;21.88;47.67;96649.97;4969028;29;20497;-89
2023/07/04 08:12:08;;;;;;;5.65;2.60;;;;;;;21.96;47.61;96648.72;4968618;28;20061;-88
2023/07/04 08:14:36;;;;;;;5.05;2.30;;;;;;;22.02;46.70;96648.50;4968590;29;20047;-85
2023/07/04 08:17:05;;;;;;;3.45;2.60;;;;;;;22.10;46.69;96654.41;4967040;29;20062;-85
2023/07/04 08:19:33;;;;;;;4.85;3.03;;;;;;;22.18;46.04;96656.59;4967969;29;20189;-88
2023/07/04 08:22:01;;;;;;;6.07;3.17;;;;;;;22.25;45.58;96653.75;4967351;29;20438;-87
2023/07/04 08:24:31;;;;;;;8.18;4.32;;;;;;;22.35;44.21;96656.50;4967170;29;20499;-84
2023/07/04 08:26:59;;;;;;;9.43;4.97;;;;;;;22.43;44.31;96645.34;4966662;29;20110;-85
2023/07/04 08:29:27;;;;;;;6.07;3.38;;;;;;;22.54;45.16;96639.06;4965933;29;20055;-84
2023/07/04 08:31:55;;;;;;;6.25;3.42;;;;;;;22.65;44.49;96644.41;4966248;29;20055;-86
2023/07/04 08:34:24;;;;;;;7.30;3.83;;;;;;;22.67;44.39;96639.66;4965587;29;20047;-86
2023/07/04 08:36:52;;;;;;;7.68;4.18;;;;;;;22.73;44.16;96643.94;4965106;29;20059;-86
2023/07/04 08:39:20;;;;;;;7.28;3.92;;;;;;;22.74;44.01;96640.22;4965014;29;20499;-87
2023/07/04 08:41:56;;;;;;;8.05;3.65;;;;;;;22.76;43.63;96644.22;4964337;29;20051;-86
2023/07/04 08:44:30;;;;;;;6.90;4.28;;;;;;;22.76;43.76;96644.22;4964277;29;20073;-86
2023/07/04 08:46:59;;;;;;;7.97;4.72;;;;;;;22.78;43.54;96644.78;4963855;29;20047;-83
2023/07/04 08:49:35;;;;;;;8.93;4.97;;;;;;;22.81;42.95;96644.25;4963288;29;20526;-85
2023/07/04 08:52:09;;;;;;;7.50;4.90;;;;;;;22.83;42.76;96636.81;4964085;29;20058;-84
2023/07/04 08:54:38;;;;;;;9.00;5.03;;;;;;;22.87;42.58;96639.78;4963535;29;20105;-88
2023/07/04 08:57:18;;;;;;;7.45;4.68;;;;;;;22.93;42.20;96637.91;4963514;29;20106;-85
2023/07/04 08:59:52;;;;;;;10.80;5.00;;;;;;;23.00;42.30;96643.81;4969641;29;20075;-86
2023/07/04 09:02:48;;;;;;;8.25;5.30;;;;;;;23.11;42.42;96642.00;4971432;28;20055;-85
2023/07/04 09:05:23;;;;;;;7.85;4.78;;;;;;;23.17;41.92;96639.09;4970212;29;20035;-88
2023/07/04 09:08:00;;;;;;;7.63;4.05;;;;;;;23.23;41.94;96648.69;4970387;28;20051;-85
2023/07/04 09:10:34;;;;;;;11.10;6.10;;;;;;;23.24;41.26;96645.00;4967787;29;20070;-87
2023/07/04 09:13:10;;;;;;;8.40;5.18;;;;;;;23.17;40.66;96654.25;4968658;29;20066;-84
2023/07/04 09:15:43;;;;;;;9.18;5.10;;;;;;;23.08;41.21;96653.16;4967677;28;20047;-86
2023/07/04 09:18:21;;;;;;;8.02;4.80;;;;;;;23.02;41.47;96657.66;4967799;29;20047;-86
2023/07/04 09:20:58;;;;;;;12.32;5.28;;;;;;;22.97;41.35;96654.97;4966419;29;20130;-85
2023/07/04 09:23:26;;;;;;;9.80;4.13;;;;;;;22.93;42.01;96654.66;4965775;28;20053;-88
2023/07/04 09:25:57;;;;;;;8.73;4.40;;;;;;;23.00;42.21;96655.28;4968951;29;20133;-87
2023/07/04 09:28:29;;;;;;;5.93;4.35;;;;;;;23.14;42.57;96654.78;4969082;29;20055;-84
2023/07/04 09:31:00;;;;;;;9.38;4.45;;;;;;;23.27;42.54;96651.66;4968309;29;20055;-85
2023/07/04 09:33:30;;;;;;;10.50;4.88;;;;;;;23.37;41.65;96656.97;4968049;29;20071;-86
2023/07/04 09:35:58;;;;;;;8.05;5.25;;;;;;;23.39;41.09;96654.84;4967906;29;20135;-85
2023/07/04 09:38:26;;;;;;;9.48;5.07;;;;;;;23.36;41.04;96652.72;4968013;29;20075;-85
2023/07/04 09:40:55;;;;;;;10.57;5.47;;;;;;;23.42;40.69;96657.00;4981655;28;20056;-90
2023/07/04 09:43:33;;;;;;;8.38;4.68;;;;;;;23.51;41.30;96653.84;4981895;28;20039;-88
2023/07/04 09:46:20;;;;;;;6.55;4.38;;;;;;;23.59;41.20;96654.13;4978592;28;20055;-90
2023/07/04 09:48:48;;;;;;;7.47;5.05;;;;;;;23.69;40.94;96650.66;4975580;29;20106;-87
2023/07/04 09:51:27;;;;;;;9.27;4.97;;;;;;;23.74;40.91;96648.00;4975261;28;20078;-86
2023/07/04 09:54:16;;;;;;;9.35;4.65;;;;;;;23.80;40.65;96654.97;4974809;29;20066;-88
2023/07/04 09:56:44;;;;;;;11.45;5.32;;;;;;;23.84;40.34;96657.91;4974187;29;20044;-90
2023/07/04 09:59:16;;;;;;;11.88;6.50;;;;;;;23.87;39.12;96652.03;4972681;28;20059;-88
2023/07/04 10:01:47;;;;;;;11.13;6.28;;;;;;;23.95;40.11;96648.06;4974168;29;20082;-89
2023/07/04 10:04:25;;;;;;;9.40;6.15;;;;;;;24.08;39.56;96654.72;4973918;29;20051;-88
2023/07/04 10:06:56;;;;;;;11.55;6.82;;;;;;;24.15;39.17;96650.72;4973241;29;20160;-86
2023/07/04 10:09:25;;;;;;;9.65;6.35;;;;;;;24.23;39.55;96655.53;4972299;29;20051;-89
2023/07/04 10:12:09;;;;;;;9.07;6.05;;;;;;;24.33;39.26;96648.56;4972594;29;20557;-87
2023/07/04 10:14:45;;;;;;;10.82;6.20;;;;;;;24.41;38.56;96634.69;4971367;29;20115;-87
2023/07/04 10:17:17;;;;;;;16.27;6.38;;;;;;;24.44;38.17;96629.63;4971588;29;20054;-87
2023/07/04 10:19:47;;;;;;;10.02;6.63;;;;;;;24.50;38.12;96633.13;4970534;29;20066;-86
2023/07/04 10:22:24;;;;;;;17.90;8.40;;;;;;;24.56;37.30;96631.25;4970078;29;20059;-84
2023/07/04 10:24:52;;;;;;;12.70;8.93;;;;;;;24.61;36.23;96634.69;4969945;29;20062;-86
2023/07/04 10:27:22;;;;;;;12.55;8.10;;;;;;;24.59;36.30;96628.81;4970413;29;20078;-84
2023/07/04 10:29:55;;;;;;;11.43;7.63;;;;;;;24.54;36.47;96634.16;4969608;28;20039;-87
2023/07/04 10:32:24;;;;;;;10.18;7.18;;;;;;;24.53;36.90;96647.75;4970032;29;20051;-87
2023/07/04 10:34:53;;;;;;;9.60;6.38;;;;;;;24.55;36.74;96640.28;4968855;28;20519;-85
2023/07/04 10:37:24;;;;;;;10.23;5.68;;;;;;;24.52;36.73;96636.31;4968748;28;20051;-87
2023/07/04 10:39:59;;;;;;;7.40;6.55;;;;;;;24.52;36.80;96636.31;4968373;29;20066;-85
2023/07/04 10:42:33;;;;;;;8.30;6.47;;;;;;;24.49;36.77;96638.69;4968765;29;20062;-85
2023/07/04 10:45:05;;;;;;;9.18;6.57;;;;;;;24.47;36.75;96638.97;4968311;29;20122;-87
2023/07/04 10:47:38;;;;;;;11.93;6.35;;;;;;;24.42;36.95;96631.78;4968482;29;20055;-88
2023/07/04 10:50:11;;;;;;;9.52;5.97;;;;;;;24.36;37.05;96632.03;4972755;29;20067;-87
2023/07/04 10:52:43;;;;;;;8.95;5.85;;;;;;;24.39;37.18;96631.50;4973560;29;20055;-89
2023/07/04 10:55:17;;;;;;;7.65;5.60;;;;;;;24.40;36.93;96622.44;4974249;29;20115;-90
2023/07/04 10:57:56;;;;;;;10.27;6.65;;;;;;;24.42;36.34;96614.97;4973685;29;20070;-87
2023/07/04 11:00:30;;;;;;;9.52;6.55;;;;;;;24.48;36.68;96608.59;4973152;29;20061;-89
2023/07/04 11:03:02;;;;;;;11.10;6.13;;;;;;;24.56;36.43;96612.56;4972907;29;20059;-88
2023/07/04 11:05:33;;;;;;;9.88;6.07;;;;;;;24.61;35.71;96612.56;4972670;29;20070;-89
2023/07/04 11:08:02;;;;;;;11.50;6.22;;;;;;;24.62;36.00;96614.13;4971421;29;20071;-86
2023/07/04 11:10:33;;;;;;;8.48;5.93;;;;;;;24.56;35.73;96618.69;4970969;29;20047;-85
2023/07/04 11:13:02;;;;;;;9.77;6.65;;;;;;;24.50;36.06;96610.97;4971298;29;20106;-88
2023/07/04 11:15:36;;;;;;;9.20;5.75;;;;;;;24.47;35.97;96607.75;4971040;29;20062;-89
2023/07/04 11:18:04;;;;;;;8.85;6.50;;;;;;;24.40;36.32;96617.09;4970742;29;20412;-88
2023/07/04 11:20:53;;;;;;;10.18;6.25;;;;;;;24.34;36.55;96611.00;4970126;29;20066;-84
2023/07/04 11:23:24;;;;;;;10.25;6.15;;;;;;;24.38;36.19;96608.56;4971242;29;20115;-86
2023/07/04 11:26:08;;;;;;;8.52;6.15;;;;;;;24.41;36.21;96606.16;4969869;29;20083;-87
2023/07/04 11:28:45;;;;;;;10.48;6.57;;;;;;;24.49;36.13;96607.53;4970377;28;20055;-86
2023/07/04 11:31:26;;;;;;;12.45;7.55;;;;;;;24.52;36.13;96604.31;4969987;29;20062;-87
2023/07/04 11:34:10;;;;;;;6.85;5.25;;;;;;;24.51;35.86;96597.41;4969506;29;20051;-84
2023/07/04 11:36:50;;;;;;;11.50;6.40;;;;;;;24.52;36.02;96600.84;4968695;29;20383;-89
2023/07/04 11:39:30;;;;;;;8.40;5.57;;;;;;;24.52;36.28;96598.97;4968600;29;20554;-86
2023/07/04 11:42:08;;;;;;;6.75;4.72;;;;;;;24.59;36.47;96586.16;4968058;29;20054;-86
2023/07/04 11:44:48;;;;;;;8.95;5.55;;;;;;;24.65;36.59;96585.06;4968531;29;20059;-84
2023/07/04 11:47:34;;;;;;;9.32;5.85;;;;;;;24.67;36.21;96592.81;4967785;28;20062;-85
2023/07/04 11:50:11;;;;;;;7.95;5.32;;;;;;;24.66;35.85;96585.84;4967907;28;20047;-85